Aurora State Airport
KUAO : now visible

Airfield :











YOU CAN JOIN US ON...

 
LOGIN :

Register | Disclaimer

   EN    FR    IT 

 









Legend :    VFR   Marginal VFR   IFR   Intensive IFR   Very Intensive IFR
Visi :
Ceiling :
>= 8 km
>= 3000ft
5 to 8 km
1000 to 3000 ft
1500m to 5 km
500 to 1000 ft
800 to 1500m
200 to 500 ft
< 800m
< 200 ft
Symbols :   Thunderstorms  Fog  Heavy snow  Heavy precipitations  Wind > 20 kt






- Airport Elevation : 200 ft


KUAO - Aurora State

CURRENT METAR :
  • 172153Z 32003KT 10SM SCT040 BKN055 09/M01 A3042 RMK AO2 SLP301 T00941011

EXPIRED METARs :
  • 172053Z 02005KT 10SM BKN033 09/00 A3043 RMK AO2 SLP305 T00890000 58006
  • 171953Z 00000KT 10SM FEW028 BKN037 BKN048 08/01 A3045 RMK AO2 SLP312 T00830006

TAF KUAO
Valid from the 17 at 18:00 until the 18 at 18:00 UTC


171730Z 1718/1818 VRB03KT P6SM SCT030 BKN080
FM172100 32004KT P6SM VCSH SCT030 BKN060
FM180200 01003KT P6SM SCT035 BKN250
FM180600 02003KT P6SM SCT250



MET'MAP, your aeronautical weather chart ! - Copyright ORBIFLY December 2007 - Disclaimer

ORBIFLY MET'MAP TEAM :

Programming & Development : Alexandra Zaïnal
Concept & original design : Baudouin d'Aumeries
Assistance for programming : Marc-Olivier Méhu
Technical & hardware support : Manuel Goepfert

Contact : metmap@orbifly.com




SOURCES & CREDITS :

   NOAA       Earth
Advisory